Погода Доктор-Морана неделю

Гуанахуато, Мексика

04 - 10 марта
  • 04марта
    Сегодня
    +12°
    +30°
    Ясно и безоблачно
    ВремяПогодаТемператураВлажностьДавлениеВетер, м/сВероятность осадков
    00:00Ясно и безоблачно+17°C39 %597 мм3.3 м/с2 %
    03:00Ясно и безоблачно+16°C43 %596 мм3.4 м/с2 %
    06:00Ясно и безоблачно+13°C46 %595 мм3.3 м/с2 %
    09:00Ясно и безоблачно+18°C32 %598 мм4.1 м/с2 %
    12:00Ясно и безоблачно+25°C20 %600 мм5.5 м/с2 %
    15:00Ясно и безоблачно+29°C13 %598 мм6.0 м/с2 %
    18:00Ясно и безоблачно+28°C10 %597 мм5.6 м/с2 %
    21:00Ясно и безоблачно+21°C17 %597 мм3.4 м/с2 %
  • 05марта
    Вторник
    +9°
    +30°
    Практически безоблачно
    ВремяПогодаТемператураВлажностьДавлениеВетер, м/сВероятность осадков
    00:00Ясно и безоблачно+18°C38 %597 мм3.7 м/с2 %
    03:00Ясно и безоблачно+15°C38 %595 мм3.1 м/с2 %
    06:00Ясно и безоблачно+14°C38 %594 мм3.1 м/с2 %
    09:00Ясно и безоблачно+18°C24 %597 мм2.8 м/с2 %
    12:00Небольшая облачность+25°C12 %599 мм4.0 м/с2 %
    15:00Практически безоблачно+29°C7 %598 мм3.5 м/с2 %
    18:00Ясно и безоблачно+28°C6 %598 мм4.7 м/с2 %
    21:00Ясно и безоблачно+18°C58 %596 мм1.8 м/с2 %
  • 06марта
    Среда
    +13°
    +31°
    Ясно и безоблачно
    ВремяПогодаТемператураВлажностьДавлениеВетер, м/сВероятность осадков
    00:00Ясно и безоблачно+17°C70 %596 мм1.9 м/с2 %
    03:00Облачно с прояснениями+15°C83 %595 мм0.8 м/с2 %
    06:00Ясно и безоблачно+12°C79 %594 мм1.2 м/с2 %
    09:00Ясно и безоблачно+17°C46 %597 мм1.1 м/с2 %
    12:00Практически безоблачно+26°C14 %599 мм2.9 м/с2 %
    15:00Ясно и безоблачно+30°C10 %598 мм4.2 м/с2 %
    18:00Ясно и безоблачно+29°C11 %598 мм4.7 м/с2 %
    21:00Ясно и безоблачно+20°C37 %596 мм1.0 м/с2 %
  • 07марта
    Четверг
    +15°
    +30°
    Ясно и безоблачно
    ВремяПогодаТемператураВлажностьДавлениеВетер, м/сВероятность осадков
    00:00Ясно и безоблачно+18°C56 %596 мм1.4 м/с2 %
    03:00Практически безоблачно+16°C41 %595 мм3.9 м/с2 %
    06:00Ясно и безоблачно+15°C47 %595 мм3.0 м/с2 %
    09:00Ясно и безоблачно+19°C33 %597 мм5.3 м/с2 %
    12:00Практически безоблачно+26°C18 %599 мм6.9 м/с2 %
    15:00Ясно и безоблачно+29°C12 %598 мм7.0 м/с2 %
    18:00Практически безоблачно+29°C12 %597 мм5.8 м/с2 %
    21:00Небольшая облачность+22°C18 %597 мм3.8 м/с2 %
  • 08марта
    Пятница
    +13°
    +30°
    Облачно с прояснениями
    ВремяПогодаТемператураВлажностьДавлениеВетер, м/сВероятность осадков
    00:00Облачно с прояснениями+19°C22 %596 мм3.8 м/с2 %
    03:00Облачно с прояснениями+18°C26 %595 мм4.7 м/с2 %
    06:00Облачно с прояснениями+16°C41 %595 мм4.7 м/с2 %
    09:00Облачно с прояснениями+17°C32 %597 мм5.7 м/с2 %
    12:00Облачно с прояснениями+24°C14 %599 мм7.4 м/с2 %
    15:00Облачно с прояснениями+29°C9 %598 мм6.6 м/с2 %
    18:00Облачно с прояснениями+29°C10 %598 мм5.4 м/с2 %
    21:00Небольшая облачность+21°C16 %597 мм2.8 м/с2 %
Мы используем cookies
Соглашаюсь